This is the latest recevied weather packets stored in our database for station/object AE5EW. If no packets are shown the sender has not sent any weather packets the latest 10 day(s).
| Time | Temp. | Humidity | Pressure | Rain* | Wind** | Luminosity | Snow |
|---|---|---|---|---|---|---|---|
| 1787774060 | 33.33° C | 57% | 1015.9 hPa | 0 mm | - | - | - |
| 1787773758 | 33.33° C | 57% | 1015.9 hPa | 0 mm | - | - | - |
| 1787773453 | 33.33° C | 57% | 1016 hPa | 0 mm | - | - | - |
| 1787773148 | 33.89° C | 56% | 1016 hPa | 0 mm | - | - | - |
| 1787772844 | 34.44° C | 52% | 1016 hPa | 0 mm | - | - | - |
| 1787772543 | 34.44° C | 60% | 1016.2 hPa | 0 mm | - | - | - |
| 1787772237 | 34.44° C | 57% | 1016 hPa | 0 mm | - | - | - |
| 1787771936 | 33.89° C | 57% | 1015.9 hPa | 0 mm | - | - | - |
| 1787771631 | 33.33° C | 56% | 1016.1 hPa | 0 mm | - | - | - |
| 1787771330 | 33.89° C | 56% | 1016.2 hPa | 0 mm | - | - | - |
| 1787771026 | 34.44° C | 54% | 1016.2 hPa | 0 mm | - | - | - |
| 1787770724 | 35.56° C | 50% | 1016.1 hPa | 0 mm | - | - | - |
| 1787770419 | 35.56° C | 48% | 1016.3 hPa | 0 mm | - | - | - |
| 1787770118 | 35° C | 52% | 1016.3 hPa | 0 mm | - | - | - |
| 1787769812 | 34.44° C | 58% | 1016.4 hPa | 0 mm | - | - | - |
| 1787769512 | 35° C | 48% | 1016.8 hPa | 0 mm | - | - | - |
| 1787769205 | 35.56° C | 50% | 1016.6 hPa | 0 mm | - | - | - |
| 1787768900 | 35.56° C | 47% | 1016.7 hPa | 0 mm | - | - | - |
| 1787768597 | 35° C | 54% | 1016.9 hPa | 0 mm | - | - | - |
| 1787768293 | 35.56° C | 51% | 1016.9 hPa | 0 mm | - | - | - |
| 1787767989 | 35° C | 52% | 1017.1 hPa | 0 mm | - | - | - |
| 1787767688 | 35° C | 51% | 1017.2 hPa | 0 mm | - | - | - |
| 1787767388 | 35° C | 54% | 1017.4 hPa | 0 mm | - | - | - |
| 1787767087 | 34.44° C | 57% | 1017.4 hPa | 0 mm | - | - | - |
| 1787766786 | 34.44° C | 53% | 1017.4 hPa | 0 mm | - | - | - |
* Rain latest hour (hover to see other rain measurements)
** Current wind speed in m/s (hover to see current wind gust speed)